createdAt,value
2023-04-22T00:02:23.767Z,99.90
2023-04-22T00:04:52.162Z,99.90
2023-04-22T00:07:20.614Z,99.90
2023-04-22T00:09:48.960Z,99.90
2023-04-22T00:12:17.196Z,99.90
2023-04-22T00:14:45.277Z,99.90
2023-04-22T00:17:13.716Z,99.90
2023-04-22T00:19:42.338Z,99.90
2023-04-22T00:22:10.641Z,99.90
2023-04-22T00:24:38.852Z,99.90
2023-04-22T00:27:07.142Z,99.90
2023-04-22T00:29:35.419Z,99.90
2023-04-22T00:32:03.986Z,99.90
2023-04-22T00:34:32.189Z,99.90
2023-04-22T00:37:00.619Z,99.90
2023-04-22T00:39:28.902Z,99.90
2023-04-22T00:41:58.086Z,99.90
2023-04-22T00:44:26.856Z,99.90
2023-04-22T00:46:56.114Z,99.90
2023-04-22T00:49:25.485Z,99.90
2023-04-22T00:51:53.773Z,99.90
2023-04-22T00:54:22.046Z,99.90
2023-04-22T00:56:50.283Z,99.90
2023-04-22T00:59:18.831Z,99.90
2023-04-22T01:01:47.804Z,99.90
2023-04-22T01:04:16.223Z,99.90
2023-04-22T01:06:45.900Z,99.90
2023-04-22T01:09:14.441Z,99.90
2023-04-22T01:11:43.502Z,99.90
2023-04-22T01:14:11.742Z,99.90
2023-04-22T01:16:41.031Z,99.90
2023-04-22T01:19:09.649Z,99.90
2023-04-22T01:21:39.194Z,99.90
2023-04-22T01:24:08.696Z,99.90
2023-04-22T01:26:37.760Z,99.90
2023-04-22T01:29:06.796Z,99.90
2023-04-22T01:31:35.388Z,99.90
2023-04-22T01:34:05.379Z,99.90
2023-04-22T01:36:34.115Z,99.90
2023-04-22T01:39:02.407Z,99.90
2023-04-22T01:41:31.284Z,99.90
2023-04-22T01:44:00.752Z,99.90
2023-04-22T01:46:29.222Z,99.90
2023-04-22T01:48:57.454Z,99.90
2023-04-22T01:51:25.641Z,99.90
2023-04-22T01:53:54.090Z,99.90
2023-04-22T01:56:25.078Z,99.90
2023-04-22T01:58:53.358Z,99.90
2023-04-22T02:01:21.662Z,99.90
2023-04-22T02:03:50.047Z,99.90
2023-04-22T02:06:18.234Z,99.90
2023-04-22T02:08:46.527Z,99.90
2023-04-22T02:11:15.953Z,99.90
2023-04-22T02:13:44.209Z,99.90
2023-04-22T02:16:12.453Z,99.90
2023-04-22T02:18:40.719Z,99.90
2023-04-22T02:21:09.434Z,99.90
2023-04-22T02:23:39.215Z,99.90
2023-04-22T02:26:08.614Z,99.90
2023-04-22T02:28:36.709Z,99.90
2023-04-22T02:31:05.055Z,99.90
2023-04-22T02:33:33.150Z,99.90
2023-04-22T02:36:01.344Z,99.90
2023-04-22T02:38:29.560Z,99.90
2023-04-22T02:40:58.065Z,99.90
2023-04-22T02:43:26.638Z,99.90
2023-04-22T02:45:54.932Z,99.90
2023-04-22T02:48:23.004Z,99.90
2023-04-22T02:50:51.693Z,99.90
2023-04-22T02:53:19.941Z,99.90
2023-04-22T02:55:48.138Z,99.90
2023-04-22T02:58:16.263Z,99.90
2023-04-22T03:00:44.796Z,99.90
2023-04-22T03:03:14.336Z,99.90
2023-04-22T03:05:42.696Z,99.90
2023-04-22T03:08:10.978Z,99.90
2023-04-22T03:10:39.278Z,99.90
2023-04-22T03:13:08.176Z,99.90
2023-04-22T03:15:37.864Z,99.90
2023-04-22T03:18:06.226Z,99.90
2023-04-22T03:20:35.404Z,99.90
2023-04-22T03:23:04.315Z,99.90
2023-04-22T03:25:32.688Z,99.90
2023-04-22T03:28:00.804Z,99.90
2023-04-22T03:30:29.207Z,99.90
2023-04-22T03:32:58.491Z,99.90
2023-04-22T03:35:49.553Z,99.90
2023-04-22T03:38:18.568Z,99.90
2023-04-22T03:40:47.265Z,99.90
2023-04-22T03:43:23.214Z,99.90
2023-04-22T03:46:05.877Z,99.90
2023-04-22T03:48:36.093Z,99.90
2023-04-22T03:51:10.279Z,99.90
2023-04-22T03:53:41.101Z,99.90
2023-04-22T03:56:12.133Z,99.90
2023-04-22T03:58:45.585Z,99.90
2023-04-22T04:01:13.860Z,99.90
2023-04-22T04:03:45.569Z,99.90
2023-04-22T04:06:15.965Z,99.90
2023-04-22T04:08:44.125Z,99.90
2023-04-22T04:11:12.473Z,99.90
2023-04-22T04:13:40.876Z,99.90
2023-04-22T04:16:26.433Z,99.90
2023-04-22T04:19:01.950Z,99.90
2023-04-22T04:21:31.121Z,99.90
2023-04-22T04:23:59.687Z,99.90
2023-04-22T04:26:31.215Z,99.90
2023-04-22T04:29:08.027Z,99.90
2023-04-22T04:31:38.857Z,99.90
2023-04-22T04:34:07.893Z,99.90
2023-04-22T04:36:37.873Z,99.90
2023-04-22T04:39:14.733Z,99.90
2023-04-22T04:41:42.877Z,99.90
2023-04-22T04:44:14.022Z,99.90
2023-04-22T04:46:42.950Z,99.90
2023-04-22T04:49:11.602Z,99.90
2023-04-22T04:51:59.942Z,99.90
2023-04-22T04:54:29.552Z,99.90
2023-04-22T04:56:59.873Z,99.90
2023-04-22T04:59:28.426Z,99.90
2023-04-22T05:01:57.130Z,99.90
2023-04-22T05:04:25.750Z,99.90
2023-04-22T05:06:55.528Z,99.90
2023-04-22T05:09:24.171Z,99.90
2023-04-22T05:11:53.389Z,99.90
2023-04-22T05:14:23.597Z,99.90
2023-04-22T05:16:53.270Z,99.90
2023-04-22T05:19:22.001Z,99.90
2023-04-22T05:21:52.837Z,99.90
2023-04-22T05:24:21.179Z,99.90
2023-04-22T05:26:50.636Z,99.90
2023-04-22T05:29:20.648Z,99.90
2023-04-22T05:31:48.896Z,99.90
2023-04-22T05:34:17.449Z,99.90
2023-04-22T05:36:45.938Z,99.90
2023-04-22T05:39:15.034Z,99.90
2023-04-22T05:41:44.865Z,99.90
2023-04-22T05:44:15.036Z,99.90
2023-04-22T05:46:43.334Z,99.90
2023-04-22T05:49:11.731Z,99.90
2023-04-22T05:51:58.051Z,99.90
2023-04-22T05:54:31.981Z,99.90
2023-04-22T05:57:00.308Z,99.90
2023-04-22T05:59:28.621Z,99.90
2023-04-22T06:01:57.565Z,99.90
2023-04-22T06:04:26.736Z,99.90
2023-04-22T06:06:55.308Z,99.90
2023-04-22T06:09:23.798Z,99.90
2023-04-22T06:11:52.084Z,99.90
2023-04-22T06:14:20.552Z,99.90
2023-04-22T06:16:48.833Z,99.90
2023-04-22T06:19:17.405Z,99.90
2023-04-22T06:21:45.785Z,99.90
2023-04-22T06:24:13.942Z,99.90
2023-04-22T06:26:43.585Z,99.90
2023-04-22T06:29:11.930Z,99.90
2023-04-22T06:31:41.336Z,99.90
2023-04-22T06:34:09.606Z,99.90
2023-04-22T06:36:38.395Z,99.90
2023-04-22T06:39:07.663Z,99.90
2023-04-22T06:41:49.525Z,99.90
2023-04-22T06:44:43.528Z,99.90
2023-04-22T06:47:43.982Z,99.90
2023-04-22T06:50:17.431Z,99.90
2023-04-22T06:52:53.646Z,99.90
2023-04-22T06:55:21.968Z,99.90
2023-04-22T06:57:51.613Z,99.90
2023-04-22T07:00:19.826Z,99.90
2023-04-22T07:02:48.318Z,99.90
2023-04-22T07:05:17.321Z,99.90
2023-04-22T07:07:47.408Z,99.90
2023-04-22T07:10:20.548Z,99.90
2023-04-22T07:13:12.054Z,99.90
2023-04-22T07:15:40.503Z,99.90
2023-04-22T07:18:08.734Z,99.90
2023-04-22T07:20:37.046Z,99.90
2023-04-22T07:23:05.164Z,99.90
2023-04-22T07:25:33.337Z,99.90
2023-04-22T07:28:01.621Z,99.90
2023-04-22T07:30:29.915Z,99.90
2023-04-22T07:32:58.184Z,99.90
2023-04-22T07:35:26.418Z,99.90
2023-04-22T07:37:55.244Z,99.90
2023-04-22T07:40:23.428Z,99.90
2023-04-22T07:42:51.464Z,99.90
2023-04-22T07:45:19.901Z,99.90
2023-04-22T07:47:48.237Z,99.90
2023-04-22T07:50:16.633Z,99.90
2023-04-22T07:52:44.710Z,99.90
2023-04-22T07:55:12.867Z,99.90
2023-04-22T07:57:41.174Z,99.90
2023-04-22T08:00:10.775Z,99.90
2023-04-22T08:02:41.690Z,99.90
2023-04-22T08:05:10.320Z,99.90
2023-04-22T08:07:38.424Z,99.90
2023-04-22T08:10:07.620Z,99.90
2023-04-22T08:12:35.903Z,99.90
2023-04-22T08:15:04.289Z,99.90
2023-04-22T08:17:32.549Z,99.90
2023-04-22T08:20:00.838Z,99.90
2023-04-22T08:22:29.037Z,99.90
2023-04-22T08:24:57.203Z,97.70
2023-04-22T08:27:25.545Z,93.70
2023-04-22T08:29:53.874Z,90.90
2023-04-22T08:32:22.113Z,87.10
2023-04-22T08:34:51.929Z,82.30
2023-04-22T08:37:22.301Z,81.00
2023-04-22T08:39:50.756Z,78.80
2023-04-22T08:42:20.675Z,76.90
2023-04-22T08:44:49.742Z,77.70
2023-04-22T08:47:19.899Z,78.80
2023-04-22T08:49:48.422Z,72.90
2023-04-22T08:52:16.622Z,66.60
2023-04-22T08:54:44.962Z,65.70
2023-04-22T08:57:14.506Z,63.60
2023-04-22T08:59:43.098Z,64.40
2023-04-22T09:02:19.997Z,63.90
2023-04-22T09:04:49.822Z,62.00
2023-04-22T09:07:33.521Z,61.60
2023-04-22T09:10:01.741Z,58.80
2023-04-22T09:12:30.165Z,57.00
2023-04-22T09:14:58.512Z,55.20
2023-04-22T09:17:34.979Z,54.40
2023-04-22T09:20:05.742Z,54.40
2023-04-22T09:22:42.837Z,55.00
2023-04-22T09:25:22.156Z,55.10
2023-04-22T09:28:00.315Z,55.50
2023-04-22T09:30:37.746Z,57.30
2023-04-22T09:33:08.081Z,56.70
2023-04-22T09:35:38.668Z,59.00
2023-04-22T09:38:09.292Z,59.90
2023-04-22T09:40:39.273Z,64.30
2023-04-22T09:43:09.348Z,74.20
2023-04-22T09:45:42.988Z,78.30
2023-04-22T09:48:13.986Z,79.70
2023-04-22T09:50:46.372Z,77.50
2023-04-22T09:53:21.764Z,77.40
2023-04-22T09:55:55.242Z,76.10
2023-04-22T09:58:23.936Z,76.50
2023-04-22T10:00:57.426Z,81.20
2023-04-22T10:03:25.950Z,80.40
2023-04-22T10:05:54.179Z,82.70
2023-04-22T10:08:22.347Z,85.40
2023-04-22T10:10:50.831Z,83.40
2023-04-22T10:13:19.359Z,85.40
2023-04-22T10:15:53.327Z,82.60
2023-04-22T10:18:26.581Z,90.00
2023-04-22T10:20:56.680Z,88.10
2023-04-22T10:23:25.830Z,92.00
2023-04-22T10:25:57.699Z,92.50
2023-04-22T10:28:29.192Z,92.40
2023-04-22T10:30:57.765Z,91.20
2023-04-22T10:33:25.865Z,91.00
2023-04-22T10:36:16.479Z,90.20
2023-04-22T10:38:56.914Z,88.70
2023-04-22T10:41:31.802Z,89.20
2023-04-22T10:44:01.902Z,92.60
2023-04-22T10:46:53.023Z,94.80
2023-04-22T10:49:26.494Z,96.70
2023-04-22T10:51:59.987Z,98.70
2023-04-22T10:54:31.127Z,99.40
2023-04-22T10:57:03.361Z,99.90
2023-04-22T10:59:33.277Z,99.60
2023-04-22T11:02:09.476Z,99.90
2023-04-22T11:04:37.884Z,99.90
2023-04-22T11:07:21.059Z,99.90
2023-04-22T11:09:59.136Z,99.90
2023-04-22T11:12:36.493Z,99.90
2023-04-22T11:15:21.011Z,99.20
2023-04-22T11:17:52.488Z,97.80
2023-04-22T11:20:21.195Z,97.10
2023-04-22T11:22:53.670Z,98.40
2023-04-22T11:25:22.866Z,97.80
2023-04-22T11:27:51.389Z,96.70
2023-04-22T11:30:21.760Z,95.50
2023-04-22T11:32:55.170Z,96.80
2023-04-22T11:35:32.912Z,98.60
2023-04-22T11:38:03.921Z,98.50
2023-04-22T11:40:36.908Z,97.90
2023-04-22T11:43:08.310Z,98.50
2023-04-22T11:45:38.364Z,96.40
2023-04-22T11:48:09.868Z,98.70
2023-04-22T11:50:39.278Z,99.40
2023-04-22T11:53:18.753Z,99.80
2023-04-22T11:55:48.601Z,99.90
2023-04-22T11:58:27.909Z,98.50
2023-04-22T12:00:58.384Z,99.80
2023-04-22T12:03:29.234Z,98.50
2023-04-22T12:06:00.665Z,99.70
2023-04-22T12:08:34.361Z,99.50
2023-04-22T12:11:05.198Z,99.60
2023-04-22T12:13:41.519Z,99.90
2023-04-22T12:16:19.274Z,99.90
2023-04-22T12:18:55.293Z,99.90
2023-04-22T12:21:25.241Z,98.30
2023-04-22T12:23:55.156Z,99.90
2023-04-22T12:26:26.955Z,99.90
2023-04-22T12:28:59.989Z,99.90
2023-04-22T12:31:28.674Z,99.90
2023-04-22T12:33:57.230Z,99.90
2023-04-22T12:36:25.471Z,99.90
2023-04-22T12:38:54.035Z,99.90
2023-04-22T12:41:22.371Z,99.90
2023-04-22T12:43:50.696Z,99.90
2023-04-22T12:46:18.966Z,99.90
2023-04-22T12:48:47.208Z,99.90
2023-04-22T12:51:15.366Z,99.90
2023-04-22T12:53:43.564Z,99.90
2023-04-22T12:56:11.914Z,99.90
2023-04-22T12:58:40.012Z,99.90
2023-04-22T13:01:08.261Z,99.90
2023-04-22T13:03:36.673Z,99.90
2023-04-22T13:06:04.869Z,99.90
2023-04-22T13:08:33.167Z,99.90
2023-04-22T13:11:01.485Z,99.90
2023-04-22T13:13:29.607Z,99.90
2023-04-22T13:15:57.917Z,99.90
2023-04-22T13:18:26.272Z,99.90
2023-04-22T13:20:55.401Z,99.90
2023-04-22T13:23:24.381Z,99.90
2023-04-22T13:25:53.965Z,99.90
2023-04-22T13:28:22.309Z,99.90
2023-04-22T13:30:50.458Z,99.90
2023-04-22T13:33:18.823Z,99.90
2023-04-22T13:35:47.149Z,99.90
2023-04-22T13:38:15.353Z,99.90
2023-04-22T13:40:43.796Z,99.90
2023-04-22T13:43:12.908Z,99.90
2023-04-22T13:45:42.454Z,99.90
2023-04-22T13:48:10.812Z,99.90
2023-04-22T13:50:39.209Z,99.90
2023-04-22T13:53:07.419Z,99.90
2023-04-22T13:55:36.105Z,99.90
2023-04-22T13:58:04.774Z,99.90
2023-04-22T14:00:34.068Z,99.90
2023-04-22T14:03:03.778Z,99.90
2023-04-22T14:05:32.259Z,99.90
2023-04-22T14:08:00.685Z,99.90
2023-04-22T14:10:29.172Z,99.90
2023-04-22T14:12:57.447Z,99.90
2023-04-22T14:15:25.688Z,99.90
2023-04-22T14:17:54.860Z,99.90
2023-04-22T14:20:26.638Z,99.90
2023-04-22T14:22:54.951Z,99.90
2023-04-22T14:25:23.180Z,99.90
2023-04-22T14:27:51.344Z,99.90
2023-04-22T14:30:19.748Z,99.90
2023-04-22T14:32:47.938Z,99.90
2023-04-22T14:35:16.129Z,99.90
2023-04-22T14:37:44.380Z,99.90
2023-04-22T14:40:12.756Z,99.90
2023-04-22T14:42:41.408Z,99.90
2023-04-22T14:45:10.120Z,99.90
2023-04-22T14:47:38.384Z,99.90
2023-04-22T14:50:07.249Z,99.90
2023-04-22T14:52:35.545Z,99.00
2023-04-22T14:55:09.091Z,99.20
2023-04-22T14:57:49.881Z,99.00
2023-04-22T15:00:18.414Z,99.90
2023-04-22T15:02:46.693Z,99.00
2023-04-22T15:05:15.132Z,99.90
2023-04-22T15:07:43.391Z,98.90
2023-04-22T15:10:11.747Z,98.40
2023-04-22T15:12:39.964Z,99.80
2023-04-22T15:15:08.756Z,98.80
2023-04-22T15:17:37.074Z,99.10
2023-04-22T15:20:07.977Z,97.40
2023-04-22T15:22:37.684Z,98.60
2023-04-22T15:25:06.142Z,99.30
2023-04-22T15:27:34.377Z,97.10
2023-04-22T15:30:03.346Z,99.30
2023-04-22T15:32:31.640Z,99.90
2023-04-22T15:35:00.025Z,98.80
2023-04-22T15:37:28.194Z,97.10
2023-04-22T15:39:56.569Z,98.30
2023-04-22T15:42:24.816Z,97.50
2023-04-22T15:44:53.172Z,97.70
2023-04-22T15:47:21.485Z,97.90
2023-04-22T15:49:49.719Z,95.80
2023-04-22T15:52:18.033Z,95.40
2023-04-22T15:54:46.223Z,96.20
2023-04-22T15:57:14.428Z,95.20
2023-04-22T15:59:42.838Z,95.50
2023-04-22T16:02:11.250Z,95.80
2023-04-22T16:04:40.024Z,96.30
2023-04-22T16:07:08.209Z,97.30
2023-04-22T16:09:36.468Z,97.50
2023-04-22T16:12:04.818Z,97.10
2023-04-22T16:14:33.128Z,97.30
2023-04-22T16:17:01.291Z,98.30
2023-04-22T16:19:29.575Z,97.70
2023-04-22T16:21:58.000Z,99.50
2023-04-22T16:24:26.381Z,99.50
2023-04-22T16:26:54.538Z,98.00
2023-04-22T16:29:22.719Z,97.70
2023-04-22T16:31:51.278Z,98.10
2023-04-22T16:34:19.500Z,99.90
2023-04-22T16:36:47.553Z,99.90
2023-04-22T16:39:15.974Z,98.80
2023-04-22T16:41:44.342Z,99.50
2023-04-22T16:44:12.624Z,98.10
2023-04-22T16:46:40.901Z,99.90
2023-04-22T16:49:10.582Z,99.90
2023-04-22T16:51:38.852Z,99.90
2023-04-22T16:54:07.219Z,99.90
2023-04-22T16:56:35.623Z,99.90
2023-04-22T16:59:03.772Z,99.90
2023-04-22T17:01:32.098Z,99.90
2023-04-22T17:04:00.545Z,99.90
2023-04-22T17:06:29.092Z,99.90
2023-04-22T17:08:57.194Z,99.90
2023-04-22T17:11:25.398Z,99.90
2023-04-22T17:13:53.781Z,99.90
2023-04-22T17:16:22.046Z,99.90
2023-04-22T17:18:50.258Z,99.90
2023-04-22T17:21:18.494Z,99.90
2023-04-22T17:23:46.860Z,99.90
2023-04-22T17:26:15.066Z,99.90
2023-04-22T17:28:43.144Z,99.90
2023-04-22T17:31:11.478Z,99.90
2023-04-22T17:33:39.612Z,99.90
2023-04-22T17:36:08.464Z,99.90
2023-04-22T17:38:36.645Z,99.90
2023-04-22T17:41:04.845Z,99.90
2023-04-22T17:43:33.157Z,99.90
2023-04-22T17:46:01.184Z,99.90
2023-04-22T17:48:29.538Z,99.90
2023-04-22T17:50:58.778Z,99.90
2023-04-22T17:53:26.996Z,99.90
2023-04-22T17:55:55.764Z,99.90
2023-04-22T17:58:23.965Z,99.90
2023-04-22T18:00:52.591Z,99.90
2023-04-22T18:03:21.071Z,99.90
2023-04-22T18:05:49.420Z,99.90
2023-04-22T18:08:17.572Z,99.90
2023-04-22T18:10:45.782Z,99.90
2023-04-22T18:13:14.194Z,99.90
2023-04-22T18:15:42.324Z,99.90
2023-04-22T18:18:11.656Z,99.90
2023-04-22T18:20:39.892Z,99.90
2023-04-22T18:23:09.494Z,99.90
2023-04-22T18:25:38.352Z,99.90
2023-04-22T18:28:06.403Z,99.90
2023-04-22T18:30:34.744Z,99.90
2023-04-22T18:33:03.392Z,99.90
2023-04-22T18:35:32.630Z,99.90
2023-04-22T18:38:00.854Z,99.90
2023-04-22T18:40:29.246Z,99.90
2023-04-22T18:42:57.774Z,99.90
2023-04-22T18:45:25.925Z,99.90
2023-04-22T18:47:54.304Z,99.90
2023-04-22T18:50:22.590Z,99.90
2023-04-22T18:52:51.112Z,99.90
2023-04-22T18:55:19.331Z,99.90
2023-04-22T18:57:47.593Z,99.90
2023-04-22T19:00:16.301Z,99.90
2023-04-22T19:02:45.320Z,99.90
2023-04-22T19:05:13.460Z,99.90
2023-04-22T19:07:44.476Z,99.90
2023-04-22T19:10:13.652Z,99.90
2023-04-22T19:12:41.940Z,99.90
2023-04-22T19:15:10.549Z,99.90
2023-04-22T19:17:38.963Z,99.90
2023-04-22T19:20:08.058Z,99.90
2023-04-22T19:22:36.384Z,99.90
2023-04-22T19:25:04.907Z,99.90
2023-04-22T19:27:34.326Z,99.90
2023-04-22T19:30:02.526Z,99.90
2023-04-22T19:32:30.815Z,99.90
2023-04-22T19:34:58.953Z,99.90
2023-04-22T19:37:27.270Z,99.90
2023-04-22T19:39:55.925Z,99.90
2023-04-22T19:42:24.118Z,99.90
2023-04-22T19:44:52.552Z,99.90
2023-04-22T19:47:20.939Z,99.90
2023-04-22T19:49:49.394Z,99.90
2023-04-22T19:52:18.703Z,99.90
2023-04-22T19:54:47.908Z,99.90
2023-04-22T19:57:16.311Z,99.90
2023-04-22T19:59:45.385Z,99.90
2023-04-22T20:02:13.973Z,99.90
2023-04-22T20:04:42.344Z,99.90
2023-04-22T20:07:10.700Z,99.90
2023-04-22T20:09:40.319Z,99.90
2023-04-22T20:12:09.277Z,99.90
2023-04-22T20:14:37.721Z,99.90
2023-04-22T20:17:06.311Z,99.90
2023-04-22T20:19:34.512Z,99.90
2023-04-22T20:22:05.950Z,99.90
2023-04-22T20:24:38.476Z,99.90
2023-04-22T20:27:07.589Z,99.90
2023-04-22T20:29:36.389Z,99.90
2023-04-22T20:32:08.731Z,99.90
2023-04-22T20:34:37.803Z,99.90
2023-04-22T20:37:06.843Z,99.90
2023-04-22T20:39:36.074Z,99.90
2023-04-22T20:42:05.592Z,99.90
2023-04-22T20:44:33.865Z,99.90
2023-04-22T20:47:02.064Z,99.90
2023-04-22T20:49:30.329Z,99.90
2023-04-22T20:51:58.426Z,99.90
2023-04-22T20:54:29.317Z,99.90
2023-04-22T20:56:59.147Z,99.90
2023-04-22T20:59:27.492Z,99.90
2023-04-22T21:01:56.365Z,99.90
2023-04-22T21:04:25.362Z,99.90
2023-04-22T21:06:55.123Z,99.90
2023-04-22T21:09:24.116Z,99.90
2023-04-22T21:11:53.529Z,99.90
2023-04-22T21:14:22.058Z,99.90
2023-04-22T21:17:14.371Z,99.90
2023-04-22T21:19:49.689Z,99.90
2023-04-22T21:22:22.414Z,99.90
2023-04-22T21:24:52.176Z,99.90
2023-04-22T21:27:22.420Z,99.90
2023-04-22T21:29:51.220Z,99.90
2023-04-22T21:32:19.538Z,99.90
2023-04-22T21:34:49.396Z,99.90
2023-04-22T21:37:18.150Z,99.90
2023-04-22T21:39:47.617Z,99.90
2023-04-22T21:42:15.911Z,99.90
2023-04-22T21:44:44.431Z,99.90
2023-04-22T21:47:12.605Z,99.90
2023-04-22T21:49:40.846Z,99.90
2023-04-22T21:52:09.321Z,99.90
2023-04-22T21:54:37.574Z,99.90
2023-04-22T21:57:06.082Z,99.90
2023-04-22T21:59:34.363Z,99.90
2023-04-22T22:02:02.665Z,99.90
2023-04-22T22:04:32.674Z,99.90
2023-04-22T22:07:03.034Z,99.90
2023-04-22T22:09:31.212Z,99.90
2023-04-22T22:11:59.858Z,99.90
2023-04-22T22:14:28.069Z,99.90
2023-04-22T22:16:57.670Z,99.90
2023-04-22T22:19:29.774Z,99.90
2023-04-22T22:21:58.440Z,99.90
2023-04-22T22:24:27.212Z,99.90
2023-04-22T22:26:55.341Z,99.90
2023-04-22T22:29:25.280Z,99.90
2023-04-22T22:31:53.485Z,99.90
2023-04-22T22:34:21.980Z,99.90
2023-04-22T22:36:54.173Z,99.90
2023-04-22T22:39:22.557Z,99.90
2023-04-22T22:41:55.937Z,99.90
2023-04-22T22:44:24.409Z,99.90
2023-04-22T22:46:52.516Z,99.90
2023-04-22T22:49:21.090Z,99.90
2023-04-22T22:51:49.594Z,99.90
2023-04-22T22:54:19.110Z,99.90
2023-04-22T22:56:48.347Z,99.90
2023-04-22T22:59:17.461Z,99.90
2023-04-22T23:01:46.490Z,99.90
2023-04-22T23:04:15.941Z,99.90
2023-04-22T23:06:48.070Z,99.90
2023-04-22T23:09:16.372Z,99.90
2023-04-22T23:11:44.428Z,99.90
2023-04-22T23:14:12.739Z,99.90
2023-04-22T23:16:41.102Z,99.90
2023-04-22T23:19:09.871Z,99.90
2023-04-22T23:21:40.078Z,99.90
2023-04-22T23:24:14.040Z,99.90
2023-04-22T23:26:42.936Z,99.90
2023-04-22T23:29:11.545Z,99.90
2023-04-22T23:31:42.129Z,99.90
2023-04-22T23:34:10.513Z,99.90
2023-04-22T23:36:38.878Z,99.90
2023-04-22T23:39:07.795Z,99.90
2023-04-22T23:41:38.063Z,99.90
2023-04-22T23:44:06.341Z,99.90
2023-04-22T23:46:34.845Z,99.90
2023-04-22T23:49:03.114Z,99.90
2023-04-22T23:51:31.347Z,99.90
2023-04-22T23:53:59.679Z,99.90
2023-04-22T23:56:28.264Z,99.90
2023-04-22T23:58:56.753Z,99.90
